Terminal Aerodrome Forecast
Issued by NWS Charleston, WV

Current Version | Previous Version | Text Only | Print | Product List | Glossary Off
Versions: 1 2 3 4 5 6 7 8 9 10 11 12 13 14 15 16 17 18 19 20 21

670
FTUS41 KRLX 101120
TAFHTS
TAF
KHTS 101120Z 1012/1112 26009KT 3SM -SHSN OVC025
      TEMPO 1012/1016 1SM -SHSN OVC015
     FM101700 26009KT P6SM OVC035
     FM110200 26009KT P6SM BKN025
     FM110800 28009KT P6SM BKN035=

USA.gov is the U.S. government's official web portal to all federal, state and local government web resources and services.